Time;durP1;ratioP1;P1;durP2;ratioP2;P2;SDS_P1;SDS_P2;PMS_P1;PMS_P2;Temp;Humidity;BMP_temperature;BMP_pressure;BME280_temperature;BME280_humidity;BME280_pressure;Samples;Min_cycle;Max_cycle;Signal;HPM_P1;HPM_P2
2022/03/04 00:00:20;;;;;;;25.80;13.80;;;0.70;99.90;;;;;;5011741;28;20462;-70
2022/03/04 00:02:47;;;;;;;29.70;15.30;;;0.70;99.90;;;;;;5011206;28;20504;-70
2022/03/04 00:05:14;;;;;;;29.20;14.53;;;0.70;99.90;;;;;;5011331;28;20508;-70
2022/03/04 00:07:40;;;;;;;31.77;14.90;;;0.70;99.90;;;;;;5011166;28;20462;-70
2022/03/04 00:10:09;;;;;;;28.10;14.87;;;0.70;99.90;;;;;;5011954;28;20508;-70
2022/03/04 00:12:35;;;;;;;30.00;14.77;;;0.70;99.90;;;;;;5011330;28;20505;-70
2022/03/04 00:15:02;;;;;;;33.70;14.70;;;0.60;99.90;;;;;;5010781;28;20447;-70
2022/03/04 00:17:29;;;;;;;28.57;13.93;;;0.70;99.90;;;;;;5011186;28;20457;-70
2022/03/04 00:19:56;;;;;;;32.63;15.10;;;0.60;99.90;;;;;;5010978;28;20450;-70
2022/03/04 00:22:22;;;;;;;28.73;15.33;;;0.60;99.90;;;;;;5011607;28;20450;-70
2022/03/04 00:24:50;;;;;;;25.67;14.90;;;0.50;99.90;;;;;;5010888;28;20497;-70
2022/03/04 00:27:18;;;;;;;31.93;15.87;;;0.50;99.90;;;;;;5009972;28;20454;-70
2022/03/04 00:29:44;;;;;;;33.60;15.30;;;0.50;99.90;;;;;;5010977;28;20485;-70
2022/03/04 00:32:11;;;;;;;28.90;14.57;;;0.40;99.90;;;;;;5010754;28;20512;-70
2022/03/04 00:34:38;;;;;;;30.00;15.33;;;0.40;99.90;;;;;;5010554;28;20508;-70
2022/03/04 00:37:05;;;;;;;30.43;14.67;;;0.40;99.90;;;;;;5011109;28;20485;-70
2022/03/04 00:39:32;;;;;;;32.67;15.40;;;0.40;99.90;;;;;;5011055;28;20458;-70
2022/03/04 00:41:59;;;;;;;31.30;14.97;;;0.40;99.90;;;;;;5011108;28;20516;-70
2022/03/04 00:44:27;;;;;;;29.77;14.70;;;0.40;99.90;;;;;;5010734;28;20486;-71
2022/03/04 00:46:53;;;;;;;32.30;15.30;;;0.40;99.90;;;;;;5010218;28;21009;-70
2022/03/04 00:49:20;;;;;;;31.97;14.83;;;0.30;99.90;;;;;;5010746;28;20481;-70
2022/03/04 00:51:47;;;;;;;27.67;14.60;;;0.20;99.90;;;;;;5010830;28;20454;-70
2022/03/04 00:54:14;;;;;;;31.53;16.23;;;0.30;99.90;;;;;;5010356;28;20446;-70
2022/03/04 00:56:42;;;;;;;31.23;15.73;;;0.20;99.90;;;;;;5010923;28;20543;-70
2022/03/04 00:59:09;;;;;;;33.20;16.07;;;0.20;99.90;;;;;;5009530;28;20979;-70
2022/03/04 01:01:37;;;;;;;31.83;15.67;;;0.10;99.90;;;;;;5010663;28;20585;-70
2022/03/04 01:04:04;;;;;;;34.10;15.50;;;0.10;99.90;;;;;;5009759;28;20486;-70
2022/03/04 01:06:31;;;;;;;28.93;15.53;;;0.10;99.90;;;;;;5010096;28;20478;-70
2022/03/04 01:08:57;;;;;;;30.50;15.73;;;0.10;99.90;;;;;;5010487;28;21167;-70
2022/03/04 01:11:24;;;;;;;28.50;15.97;;;0.20;99.90;;;;;;5008912;28;20512;-70
2022/03/04 01:13:51;;;;;;;33.70;16.10;;;0.10;99.90;;;;;;5009811;28;20480;-70
2022/03/04 01:16:17;;;;;;;36.03;16.30;;;0.10;99.90;;;;;;5010184;28;20474;-70
2022/03/04 01:18:45;;;;;;;27.57;15.40;;;0.10;99.90;;;;;;5010191;28;20455;-70
2022/03/04 01:21:12;;;;;;;30.97;16.73;;;0.10;99.90;;;;;;5009505;28;20508;-70
2022/03/04 01:23:39;;;;;;;30.90;16.53;;;0.10;99.90;;;;;;5009877;28;20490;-72
2022/03/04 01:26:06;;;;;;;29.77;16.00;;;0.10;99.90;;;;;;5009798;28;20524;-71
2022/03/04 01:28:32;;;;;;;33.87;14.83;;;0.10;99.90;;;;;;5010274;28;20458;-71
2022/03/04 01:30:59;;;;;;;33.60;15.90;;;0.10;99.90;;;;;;5009757;28;20458;-71
2022/03/04 01:33:26;;;;;;;32.23;16.90;;;0.10;99.90;;;;;;5009905;28;20446;-71
2022/03/04 01:35:54;;;;;;;33.90;16.07;;;0.10;99.90;;;;;;5009810;28;20528;-71
2022/03/04 01:38:21;;;;;;;29.83;15.83;;;0.10;99.90;;;;;;5006779;28;20499;-71
2022/03/04 01:40:47;;;;;;;34.77;16.63;;;0.00;99.90;;;;;;5009900;28;20453;-71
2022/03/04 01:43:14;;;;;;;33.10;16.17;;;0.00;99.90;;;;;;5009633;28;20545;-71
2022/03/04 01:45:41;;;;;;;34.57;17.10;;;0.00;99.90;;;;;;5009905;28;20466;-71
2022/03/04 01:48:08;;;;;;;30.13;16.27;;;0.00;99.90;;;;;;5009666;28;20450;-71
2022/03/04 01:50:35;;;;;;;33.50;16.53;;;-0.10;99.90;;;;;;5010185;28;20458;-71
2022/03/04 01:53:04;;;;;;;29.47;16.33;;;-0.10;99.90;;;;;;5009079;28;21270;-71
2022/03/04 01:55:31;;;;;;;30.90;16.60;;;-0.10;99.90;;;;;;5009675;28;20470;-71
2022/03/04 01:57:58;;;;;;;38.20;17.60;;;-0.10;99.90;;;;;;5009810;28;20484;-71
2022/03/04 02:00:25;;;;;;;37.17;18.40;;;-0.10;99.90;;;;;;5009905;28;20454;-71
2022/03/04 02:02:53;;;;;;;36.97;18.83;;;-0.20;99.90;;;;;;5009678;28;20497;-71
2022/03/04 02:05:20;;;;;;;34.13;16.33;;;-0.30;99.90;;;;;;5009156;28;20482;-71
2022/03/04 02:07:47;;;;;;;29.20;15.83;;;-0.30;99.90;;;;;;5008907;28;20956;-71
2022/03/04 02:10:15;;;;;;;29.40;15.03;;;-0.30;99.90;;;;;;5010114;28;20455;-71
2022/03/04 02:12:41;;;;;;;35.50;17.43;;;-0.30;99.90;;;;;;5009444;28;20951;-71
2022/03/04 02:15:09;;;;;;;29.07;15.97;;;-0.30;99.90;;;;;;5008896;28;20512;-71
2022/03/04 02:17:36;;;;;;;37.27;17.13;;;-0.20;99.90;;;;;;5009167;28;20457;-71
2022/03/04 02:20:04;;;;;;;35.63;17.50;;;-0.30;99.90;;;;;;5012811;28;20466;-72
2022/03/04 02:22:32;;;;;;;39.37;16.97;;;-0.40;99.90;;;;;;5013478;28;20458;-71
2022/03/04 02:24:59;;;;;;;37.17;15.43;;;-0.40;99.90;;;;;;5012762;28;20481;-71
2022/03/04 02:27:25;;;;;;;36.03;17.23;;;-0.50;99.90;;;;;;5013475;28;20458;-71
2022/03/04 02:29:52;;;;;;;33.13;16.50;;;-0.50;99.90;;;;;;5013196;28;20820;-71
2022/03/04 02:32:19;;;;;;;29.63;15.77;;;-0.60;99.90;;;;;;5013230;28;20522;-71
2022/03/04 02:34:46;;;;;;;38.00;17.70;;;-0.60;99.90;;;;;;5012852;28;20497;-71
2022/03/04 02:37:14;;;;;;;35.93;16.30;;;-0.60;99.90;;;;;;5013361;28;20481;-71
2022/03/04 02:39:42;;;;;;;33.70;16.87;;;-0.60;99.90;;;;;;5011280;28;20528;-71
2022/03/04 02:42:09;;;;;;;30.60;15.10;;;-0.70;99.90;;;;;;5012730;28;20450;-71
2022/03/04 02:44:36;;;;;;;32.90;16.43;;;-0.70;99.90;;;;;;5012899;28;20482;-71
2022/03/04 02:47:03;;;;;;;30.10;16.10;;;-0.70;99.90;;;;;;5012731;28;20477;-71
2022/03/04 02:49:30;;;;;;;31.10;16.33;;;-0.70;99.90;;;;;;5012826;28;20450;-71
2022/03/04 02:51:57;;;;;;;38.03;17.47;;;-0.70;99.90;;;;;;5013000;28;20934;-71
2022/03/04 02:54:24;;;;;;;36.27;17.73;;;-0.40;99.90;;;;;;5008125;28;20453;-71
2022/03/04 02:56:52;;;;;;;36.10;18.37;;;-0.80;99.90;;;;;;5013324;28;20823;-71
2022/03/04 02:59:19;;;;;;;33.20;16.90;;;-0.80;99.90;;;;;;5012862;28;20450;-71
2022/03/04 03:01:46;;;;;;;30.70;16.37;;;-0.70;99.90;;;;;;5012967;28;20520;-71
2022/03/04 03:04:12;;;;;;;32.73;15.87;;;-0.80;99.90;;;;;;5011972;28;20474;-73
2022/03/04 03:06:39;;;;;;;36.00;16.50;;;-0.50;99.90;;;;;;5012707;28;21010;-74
2022/03/04 03:09:06;;;;;;;33.10;17.20;;;-0.70;99.90;;;;;;5012655;28;20478;-74
2022/03/04 03:11:32;;;;;;;39.73;17.30;;;-0.90;99.90;;;;;;5012831;28;20914;-73
2022/03/04 03:14:00;;;;;;;34.27;16.07;;;-0.90;99.90;;;;;;5012075;28;20528;-73
2022/03/04 03:16:27;;;;;;;33.10;16.13;;;-0.90;99.90;;;;;;5008519;28;20478;-73
2022/03/04 03:18:54;;;;;;;39.83;17.70;;;-0.70;99.90;;;;;;5012604;28;20446;-74
2022/03/04 03:21:20;;;;;;;37.43;18.30;;;-0.80;99.90;;;;;;5012861;28;20454;-73
2022/03/04 03:23:47;;;;;;;34.63;16.93;;;-0.70;99.90;;;;;;5012203;28;20465;-73
2022/03/04 03:26:14;;;;;;;38.03;17.80;;;-0.80;99.90;;;;;;5011917;28;20532;-74
2022/03/04 03:28:41;;;;;;;31.30;16.87;;;-0.80;99.90;;;;;;5012903;28;20458;-73
2022/03/04 03:31:09;;;;;;;32.67;17.23;;;-0.70;99.90;;;;;;5011764;28;20458;-73
2022/03/04 03:33:37;;;;;;;37.00;17.20;;;-0.80;99.90;;;;;;5011895;28;20509;-73
2022/03/04 03:36:04;;;;;;;38.57;17.13;;;-0.80;99.90;;;;;;5012338;28;20816;-73
2022/03/04 03:38:31;;;;;;;37.87;17.73;;;-0.80;99.90;;;;;;5012233;28;20454;-73
2022/03/04 03:40:57;;;;;;;43.10;19.50;;;-0.80;99.90;;;;;;5012053;28;20508;-73
2022/03/04 03:43:24;;;;;;;38.67;17.07;;;-0.60;99.90;;;;;;5011854;28;20485;-73
2022/03/04 03:45:51;;;;;;;38.37;17.10;;;-0.80;99.90;;;;;;5012101;28;20540;-73
2022/03/04 03:48:19;;;;;;;39.83;17.67;;;-0.80;99.90;;;;;;5011886;28;20466;-73
2022/03/04 03:50:46;;;;;;;40.97;18.73;;;-0.80;99.90;;;;;;5012026;28;20458;-73
2022/03/04 03:53:12;;;;;;;40.43;18.57;;;-0.80;99.90;;;;;;5010880;28;20516;-73
2022/03/04 03:55:39;;;;;;;39.80;18.20;;;-0.80;99.90;;;;;;5011116;28;20474;-73
2022/03/04 03:58:06;;;;;;;38.50;18.00;;;-0.80;99.90;;;;;;5011751;28;20455;-73
2022/03/04 04:00:33;;;;;;;33.80;16.83;;;-0.80;99.90;;;;;;5011771;28;20889;-74
2022/03/04 04:02:59;;;;;;;37.17;18.00;;;-0.90;99.90;;;;;;5010634;28;20450;-73
2022/03/04 04:05:28;;;;;;;37.80;17.27;;;-0.90;99.90;;;;;;5011293;28;20490;-74
2022/03/04 04:07:54;;;;;;;42.67;18.93;;;-0.90;99.90;;;;;;5011575;28;20454;-74
2022/03/04 04:10:21;;;;;;;36.77;17.87;;;-0.90;99.90;;;;;;5011627;28;20450;-74
2022/03/04 04:12:48;;;;;;;35.30;16.07;;;-0.80;99.90;;;;;;5011474;28;20451;-74
2022/03/04 04:15:14;;;;;;;36.40;16.50;;;-1.00;99.90;;;;;;5010922;28;20528;-73
2022/03/04 04:17:41;;;;;;;35.30;17.67;;;-1.00;99.90;;;;;;5011797;28;20446;-73
2022/03/04 04:20:09;;;;;;;36.90;16.90;;;-1.00;99.90;;;;;;5010349;28;20446;-74
2022/03/04 04:22:37;;;;;;;42.67;19.67;;;-1.10;99.90;;;;;;5011608;28;20512;-73
2022/03/04 04:25:04;;;;;;;33.90;16.23;;;-1.10;99.90;;;;;;5010940;28;20489;-73
2022/03/04 04:27:31;;;;;;;36.57;17.60;;;-1.10;99.90;;;;;;5005515;28;20954;-73
2022/03/04 04:29:58;;;;;;;41.60;18.17;;;-0.90;99.90;;;;;;5010891;28;20473;-73
2022/03/04 04:32:25;;;;;;;39.60;18.80;;;-1.10;99.90;;;;;;5011246;28;20455;-73
2022/03/04 04:34:51;;;;;;;43.73;19.30;;;-1.20;99.90;;;;;;5010729;28;20446;-74
2022/03/04 04:37:18;;;;;;;42.37;16.77;;;-1.10;99.90;;;;;;5010560;28;20450;-73
2022/03/04 04:39:46;;;;;;;34.90;16.60;;;-1.20;99.90;;;;;;5011365;28;20450;-73
2022/03/04 04:42:13;;;;;;;38.80;18.00;;;-1.20;99.90;;;;;;5010450;28;20462;-73
2022/03/04 04:44:39;;;;;;;34.57;18.07;;;-0.90;99.90;;;;;;5010856;28;20482;-74
2022/03/04 04:47:07;;;;;;;36.10;17.33;;;-0.90;99.90;;;;;;5010584;28;20997;-73
2022/03/04 04:49:36;;;;;;;39.47;17.90;;;-1.20;99.90;;;;;;5011408;28;20549;-73
2022/03/04 04:52:04;;;;;;;34.00;17.33;;;-1.00;99.90;;;;;;5010647;28;20519;-73
2022/03/04 04:54:31;;;;;;;42.23;17.60;;;-1.20;99.90;;;;;;5010771;28;20919;-73
2022/03/04 04:56:59;;;;;;;40.53;18.67;;;-1.30;99.90;;;;;;5010535;28;20470;-73
2022/03/04 04:59:26;;;;;;;34.57;17.10;;;-1.00;99.90;;;;;;5010683;28;20459;-73
2022/03/04 05:01:52;;;;;;;43.00;17.90;;;-1.30;99.90;;;;;;5010609;28;20451;-75
2022/03/04 05:04:19;;;;;;;39.67;18.40;;;-1.30;99.90;;;;;;5010380;28;20451;-73
2022/03/04 05:06:46;;;;;;;41.00;18.40;;;-1.30;99.90;;;;;;5011084;28;20478;-74
2022/03/04 05:09:12;;;;;;;36.20;17.93;;;-1.00;99.90;;;;;;5010271;28;20454;-73
2022/03/04 05:11:39;;;;;;;38.77;17.60;;;-1.30;99.90;;;;;;5010518;28;20517;-75
2022/03/04 05:14:07;;;;;;;39.33;18.67;;;-0.90;99.90;;;;;;5009079;28;20463;-74
2022/03/04 05:16:34;;;;;;;42.00;18.10;;;-1.40;99.90;;;;;;5009549;28;20462;-73
2022/03/04 05:19:00;;;;;;;34.33;16.57;;;-1.40;99.90;;;;;;5010414;28;20455;-73
2022/03/04 05:21:27;;;;;;;42.10;19.17;;;-1.40;99.90;;;;;;5010582;28;21215;-74
2022/03/04 05:24:00;;;;;;;41.27;17.93;;;-1.20;99.90;;;;;;5009913;28;20458;-75
2022/03/04 05:26:27;;;;;;;43.63;18.90;;;-1.30;99.90;;;;;;5009222;28;20486;-73
2022/03/04 05:28:55;;;;;;;40.00;17.83;;;-1.50;99.90;;;;;;5009860;28;20592;-75
2022/03/04 05:31:23;;;;;;;39.47;18.47;;;-1.20;99.90;;;;;;5010729;28;20469;-74
2022/03/04 05:33:50;;;;;;;35.50;18.47;;;-1.20;99.90;;;;;;5009957;28;20451;-73
2022/03/04 05:36:17;;;;;;;42.40;17.20;;;-1.60;99.90;;;;;;5009949;28;20481;-75
2022/03/04 05:38:44;;;;;;;39.77;18.37;;;-1.50;99.90;;;;;;5010209;28;20450;-74
2022/03/04 05:41:10;;;;;;;41.43;19.03;;;-1.10;99.90;;;;;;5009922;28;20469;-74
2022/03/04 05:43:38;;;;;;;39.60;18.53;;;-1.30;99.90;;;;;;5009604;28;20465;-74
2022/03/04 05:46:05;;;;;;;36.57;17.30;;;-1.30;99.90;;;;;;5007181;28;20489;-72
2022/03/04 05:48:34;;;;;;;38.00;18.37;;;-1.60;99.90;;;;;;5009934;28;20876;-72
2022/03/04 05:51:01;;;;;;;38.03;18.00;;;-1.70;99.90;;;;;;5009347;28;20450;-72
2022/03/04 05:53:27;;;;;;;40.90;19.53;;;-1.40;99.90;;;;;;5008504;28;20454;-72
2022/03/04 05:55:54;;;;;;;41.00;18.67;;;-1.50;99.90;;;;;;5010376;28;20474;-75
2022/03/04 05:58:21;;;;;;;40.10;18.60;;;-1.70;99.90;;;;;;5009442;28;20458;-75
2022/03/04 06:00:47;;;;;;;37.20;18.67;;;-1.40;99.90;;;;;;5009170;28;20513;-74
2022/03/04 06:03:14;;;;;;;43.03;20.20;;;-1.60;99.90;;;;;;5009489;28;20455;-73
2022/03/04 06:05:42;;;;;;;44.43;19.00;;;-1.70;99.90;;;;;;5009610;28;20548;-73
2022/03/04 06:08:10;;;;;;;42.57;18.73;;;-1.70;99.90;;;;;;5009662;28;20446;-74
2022/03/04 06:10:37;;;;;;;44.90;22.63;;;-1.60;99.90;;;;;;5009594;28;20453;-73
2022/03/04 06:13:04;;;;;;;40.60;19.17;;;-1.60;99.90;;;;;;5009370;28;20505;-73
2022/03/04 06:15:30;;;;;;;41.33;19.30;;;-1.10;99.90;;;;;;5009044;28;20474;-73
2022/03/04 06:17:57;;;;;;;45.17;19.10;;;-1.70;99.90;;;;;;5009749;28;20450;-73
2022/03/04 06:20:24;;;;;;;46.37;19.40;;;-1.60;99.90;;;;;;5009626;28;20536;-74
2022/03/04 06:22:52;;;;;;;41.73;19.87;;;-1.50;99.90;;;;;;5009782;28;20553;-74
2022/03/04 06:25:19;;;;;;;39.93;18.77;;;-1.60;99.90;;;;;;5008906;28;21013;-74
2022/03/04 06:27:54;;;;;;;41.67;19.30;;;-1.40;99.90;;;;;;5009571;28;20454;-74
2022/03/04 06:30:21;;;;;;;48.27;20.13;;;-1.50;99.90;;;;;;5009363;28;20446;-74
2022/03/04 06:32:48;;;;;;;39.50;19.40;;;-1.30;99.90;;;;;;5009552;28;20450;-74
2022/03/04 06:35:15;;;;;;;46.57;21.20;;;-0.60;99.90;;;;;;5009287;28;20474;-74
2022/03/04 06:37:42;;;;;;;38.73;18.33;;;-0.80;99.90;;;;;;5009664;28;20501;-74
2022/03/04 06:40:11;;;;;;;39.23;17.57;;;-0.60;99.90;;;;;;5009544;28;21092;-74
2022/03/04 06:42:38;;;;;;;42.73;19.27;;;-0.40;99.90;;;;;;5003512;28;20512;-74
2022/03/04 06:45:06;;;;;;;39.60;19.00;;;0.00;99.90;;;;;;5008939;28;20478;-75
2022/03/04 06:47:33;;;;;;;45.17;20.33;;;0.30;99.90;;;;;;5009612;28;20490;-75
2022/03/04 06:49:59;;;;;;;41.80;18.23;;;0.70;99.90;;;;;;5006090;28;20540;-74
2022/03/04 06:52:26;;;;;;;39.23;18.63;;;1.20;99.90;;;;;;5006763;28;20457;-74
2022/03/04 06:54:53;;;;;;;40.90;18.90;;;1.50;99.90;;;;;;5009002;28;20446;-73
2022/03/04 06:57:21;;;;;;;39.67;18.43;;;1.90;99.90;;;;;;5008973;28;20462;-75
2022/03/04 06:59:48;;;;;;;35.13;17.70;;;2.30;99.90;;;;;;5009108;28;20532;-76
2022/03/04 07:02:15;;;;;;;38.30;18.20;;;2.60;99.90;;;;;;5008761;28;20464;-75
2022/03/04 07:04:42;;;;;;;35.37;17.37;;;2.90;99.90;;;;;;5009813;28;20472;-75
2022/03/04 07:07:08;;;;;;;40.40;19.30;;;3.10;99.90;;;;;;5012504;28;20930;-76
2022/03/04 07:09:35;;;;;;;39.07;20.07;;;3.30;99.90;;;;;;5012294;28;20457;-77
2022/03/04 07:12:02;;;;;;;37.70;19.70;;;3.50;99.90;;;;;;5012717;28;20469;-75
2022/03/04 07:14:30;;;;;;;40.73;18.43;;;3.70;99.90;;;;;;5012424;28;20446;-76
2022/03/04 07:16:57;;;;;;;36.33;18.50;;;4.00;99.90;;;;;;5012526;28;20469;-75
2022/03/04 07:19:23;;;;;;;44.13;19.70;;;4.20;99.90;;;;;;5011954;28;20454;-76
2022/03/04 07:21:50;;;;;;;42.50;20.07;;;4.50;99.90;;;;;;5006616;28;20458;-76
2022/03/04 07:24:17;;;;;;;43.10;20.13;;;4.70;99.90;;;;;;5009462;28;20939;-76
2022/03/04 07:26:44;;;;;;;40.40;19.67;;;5.00;99.90;;;;;;5012209;28;20492;-76
2022/03/04 07:29:11;;;;;;;48.37;21.17;;;5.20;99.90;;;;;;5011802;28;20458;-75
2022/03/04 07:31:39;;;;;;;44.63;21.70;;;5.40;99.90;;;;;;5011009;28;20954;-76
2022/03/04 07:34:06;;;;;;;45.40;20.80;;;5.70;99.90;;;;;;5011202;28;20458;-77
2022/03/04 07:36:33;;;;;;;45.43;21.50;;;5.80;99.90;;;;;;5011405;28;20462;-75
2022/03/04 07:39:00;;;;;;;44.20;22.60;;;6.10;99.90;;;;;;5011228;28;20457;-76
2022/03/04 07:41:27;;;;;;;44.17;22.03;;;6.10;99.90;;;;;;5011093;28;20458;-76
2022/03/04 07:43:54;;;;;;;43.17;20.63;;;6.20;99.90;;;;;;5009540;28;20492;-75
2022/03/04 07:46:21;;;;;;;51.70;23.60;;;6.20;99.90;;;;;;5010452;28;20490;-75
2022/03/04 07:48:50;;;;;;;47.30;23.23;;;6.30;99.90;;;;;;5012469;28;20809;-75
2022/03/04 07:51:17;;;;;;;51.57;23.87;;;6.50;99.90;;;;;;5009658;28;20468;-75
2022/03/04 07:53:43;;;;;;;61.07;24.10;;;6.60;99.90;;;;;;5010292;28;20455;-76
2022/03/04 07:56:11;;;;;;;51.43;24.60;;;6.70;99.90;;;;;;5011783;28;20489;-75
2022/03/04 07:58:38;;;;;;;59.00;25.20;;;6.40;99.90;;;;;;5012297;28;20450;-75
2022/03/04 08:01:05;;;;;;;58.93;27.23;;;6.50;99.90;;;;;;5011826;28;20455;-74
2022/03/04 08:03:32;;;;;;;62.27;25.50;;;6.40;99.90;;;;;;5010448;28;20545;-74
2022/03/04 08:06:00;;;;;;;63.63;26.90;;;6.20;99.90;;;;;;5009471;28;20482;-75
2022/03/04 08:08:27;;;;;;;62.83;27.07;;;5.80;99.90;;;;;;5010597;28;20462;-75
2022/03/04 08:10:54;;;;;;;57.90;26.33;;;5.60;99.90;;;;;;5010987;28;20450;-75
2022/03/04 08:13:21;;;;;;;59.80;24.97;;;5.50;99.90;;;;;;5009508;28;20462;-75
2022/03/04 08:15:49;;;;;;;49.83;24.27;;;5.40;99.90;;;;;;5009815;28;20945;-73
2022/03/04 08:18:17;;;;;;;55.73;24.90;;;5.30;99.90;;;;;;5009972;28;20458;-73
2022/03/04 08:20:44;;;;;;;55.87;26.80;;;5.40;99.90;;;;;;5008045;28;20462;-73
2022/03/04 08:23:12;;;;;;;54.57;25.27;;;5.40;99.90;;;;;;5009715;28;20463;-72
2022/03/04 08:25:39;;;;;;;58.10;27.57;;;5.20;99.90;;;;;;5008788;28;20489;-74
2022/03/04 08:28:06;;;;;;;65.30;27.30;;;5.00;99.90;;;;;;5010554;28;20486;-75
2022/03/04 08:30:33;;;;;;;64.30;28.50;;;5.00;99.90;;;;;;5009856;28;20450;-73
2022/03/04 08:33:00;;;;;;;66.50;27.87;;;5.20;99.90;;;;;;5009550;28;20458;-73
2022/03/04 08:35:27;;;;;;;64.80;27.80;;;5.10;99.90;;;;;;5009669;28;20489;-74
2022/03/04 08:37:54;;;;;;;65.63;29.00;;;5.10;99.90;;;;;;5008591;28;20513;-73
2022/03/04 08:40:22;;;;;;;64.80;29.17;;;5.10;99.90;;;;;;5009387;28;20453;-74
2022/03/04 08:42:49;;;;;;;70.27;30.03;;;5.00;99.90;;;;;;5009818;28;20454;-74
2022/03/04 08:45:17;;;;;;;72.90;29.10;;;5.10;99.90;;;;;;5007286;28;20481;-73
2022/03/04 08:47:44;;;;;;;68.37;29.93;;;5.20;99.90;;;;;;5009554;28;20977;-73
2022/03/04 08:50:13;;;;;;;68.33;30.03;;;5.30;99.90;;;;;;5010059;28;20489;-73
2022/03/04 08:52:40;;;;;;;69.47;30.07;;;5.50;99.90;;;;;;5008855;28;20463;-74
2022/03/04 08:55:14;;;;;;;65.67;31.60;;;5.70;99.90;;;;;;5009326;28;20457;-73
2022/03/04 08:57:42;;;;;;;63.93;27.90;;;5.70;99.90;;;;;;5007501;28;20454;-75
2022/03/04 09:00:10;;;;;;;73.33;32.03;;;5.90;99.90;;;;;;5009694;28;20466;-73
2022/03/04 09:02:37;;;;;;;77.20;31.47;;;6.00;99.90;;;;;;5009245;28;20534;-73
2022/03/04 09:05:05;;;;;;;71.07;31.50;;;6.20;99.90;;;;;;5008014;28;21020;-72
2022/03/04 09:07:31;;;;;;;70.77;30.63;;;6.50;99.90;;;;;;5008974;28;20486;-75
2022/03/04 09:09:58;;;;;;;65.07;30.57;;;6.50;99.90;;;;;;5005472;28;20482;-76
2022/03/04 09:12:25;;;;;;;68.83;29.90;;;6.40;99.90;;;;;;5009766;28;20454;-75
2022/03/04 09:14:53;;;;;;;72.40;31.33;;;6.40;99.90;;;;;;5008944;28;20533;-75
2022/03/04 09:17:20;;;;;;;70.30;30.23;;;6.70;99.90;;;;;;5006761;28;20564;-73
2022/03/04 09:19:47;;;;;;;66.43;30.20;;;6.80;99.90;;;;;;5009468;28;20443;-73
2022/03/04 09:22:13;;;;;;;72.97;31.60;;;7.00;99.90;;;;;;5008351;28;20461;-72
2022/03/04 09:24:40;;;;;;;72.67;31.70;;;7.00;99.90;;;;;;5008683;28;20450;-75
2022/03/04 09:27:07;;;;;;;74.70;32.50;;;7.00;99.90;;;;;;5009104;28;20556;-73
2022/03/04 09:29:34;;;;;;;73.37;33.77;;;6.80;99.90;;;;;;5010043;28;20442;-73
2022/03/04 09:32:02;;;;;;;64.63;29.60;;;6.80;99.90;;;;;;5009147;28;20458;-72
2022/03/04 09:34:29;;;;;;;70.70;34.20;;;7.00;99.90;;;;;;5009187;28;20442;-73
2022/03/04 09:36:55;;;;;;;76.07;32.53;;;7.00;99.90;;;;;;5008930;28;20473;-75
2022/03/04 09:39:22;;;;;;;68.83;31.10;;;7.00;99.90;;;;;;5009372;28;20449;-77
2022/03/04 09:41:49;;;;;;;72.13;31.50;;;7.00;99.90;;;;;;5004346;28;20472;-76
2022/03/04 09:44:16;;;;;;;69.47;32.23;;;7.40;99.90;;;;;;5009827;28;20541;-77
2022/03/04 09:46:44;;;;;;;71.50;31.10;;;7.70;99.90;;;;;;5009588;28;20574;-77
2022/03/04 09:49:16;;;;;;;72.53;32.30;;;7.80;99.90;;;;;;5009140;28;20463;-75
2022/03/04 09:51:43;;;;;;;63.13;30.27;;;7.70;99.90;;;;;;5008216;28;20541;-73
2022/03/04 09:54:10;;;;;;;67.70;30.40;;;7.80;99.90;;;;;;5008152;28;20462;-73
2022/03/04 09:56:38;;;;;;;66.57;33.23;;;7.80;99.90;;;;;;5009540;28;20563;-74
2022/03/04 09:59:05;;;;;;;71.57;33.37;;;7.70;99.90;;;;;;5008907;28;20870;-73
2022/03/04 10:01:31;;;;;;;69.97;31.17;;;7.90;99.90;;;;;;5009249;28;20454;-74
2022/03/04 10:03:58;;;;;;;66.00;30.80;;;8.10;99.90;;;;;;5008752;28;20466;-73
2022/03/04 10:06:27;;;;;;;65.43;30.57;;;8.10;99.90;;;;;;5009457;28;20485;-72
2022/03/04 10:08:54;;;;;;;67.47;31.57;;;8.20;99.90;;;;;;5008901;28;20934;-73
2022/03/04 10:11:26;;;;;;;72.33;33.63;;;8.10;99.90;;;;;;5007972;28;20893;-73
2022/03/04 10:13:55;;;;;;;68.20;32.40;;;8.10;99.90;;;;;;5003224;28;21092;-73
2022/03/04 10:16:27;;;;;;;65.80;31.97;;;8.30;99.90;;;;;;5009358;28;20474;-73
2022/03/04 10:19:11;;;;;;;64.67;30.23;;;8.60;99.90;;;;;;5008017;28;20454;-73
2022/03/04 10:21:50;;;;;;;70.47;32.40;;;8.90;99.90;;;;;;5009211;28;20457;-73
2022/03/04 10:24:19;;;;;;;69.70;32.33;;;9.10;99.90;;;;;;5007574;28;20822;-73
2022/03/04 10:26:46;;;;;;;62.70;32.50;;;9.30;99.90;;;;;;5009270;28;20490;-73
2022/03/04 10:29:21;;;;;;;75.27;32.63;;;9.60;99.90;;;;;;5009395;28;20454;-74
2022/03/04 10:32:18;;;;;;;73.00;31.57;;;9.90;99.90;;;;;;5008529;28;20457;-74
2022/03/04 10:34:51;;;;;;;66.00;31.03;;;9.60;99.90;;;;;;5007379;28;20450;-74
2022/03/04 10:37:21;;;;;;;64.10;30.60;;;9.40;99.90;;;;;;5009125;28;20478;-73
2022/03/04 10:40:06;;;;;;;71.63;32.77;;;9.30;99.90;;;;;;5010917;28;20545;-74
2022/03/04 10:42:49;;;;;;;68.67;29.47;;;9.00;99.90;;;;;;5012060;28;20486;-73
2022/03/04 10:45:18;;;;;;;64.83;30.13;;;9.10;99.90;;;;;;5012015;28;20478;-73
2022/03/04 10:47:51;;;;;;;68.10;31.80;;;9.10;99.90;;;;;;5006059;28;20532;-73
2022/03/04 10:50:20;;;;;;;63.73;31.60;;;9.30;99.90;;;;;;5011775;28;20458;-74
2022/03/04 10:52:57;;;;;;;65.93;32.67;;;9.60;99.90;;;;;;5012786;28;20463;-75
2022/03/04 10:55:30;;;;;;;63.90;31.13;;;10.00;99.90;;;;;;5012605;28;21052;-74
2022/03/04 10:57:57;;;;;;;71.93;33.07;;;10.10;99.90;;;;;;5007172;28;21662;-74
2022/03/04 11:00:25;;;;;;;68.57;32.67;;;10.10;99.90;;;;;;5012620;28;20457;-74
2022/03/04 11:02:53;;;;;;;68.80;32.77;;;10.00;99.90;;;;;;5012700;28;20508;-73
2022/03/04 11:05:21;;;;;;;70.73;32.03;;;10.00;99.90;;;;;;5011550;28;20497;-74
2022/03/04 11:07:49;;;;;;;62.47;32.23;;;10.10;99.90;;;;;;5011573;28;20498;-74
2022/03/04 11:10:19;;;;;;;64.00;31.77;;;10.20;99.90;;;;;;5012741;28;20573;-74
2022/03/04 11:12:49;;;;;;;61.40;30.80;;;10.30;99.90;;;;;;5011602;28;20455;-73
2022/03/04 11:15:18;;;;;;;71.90;31.73;;;10.20;99.90;;;;;;5012176;28;20842;-74
2022/03/04 11:17:46;;;;;;;64.50;30.90;;;10.20;99.90;;;;;;5006055;28;20450;-74
2022/03/04 11:20:14;;;;;;;65.97;31.07;;;10.30;99.90;;;;;;5011983;28;20543;-74
2022/03/04 11:22:43;;;;;;;60.43;30.23;;;10.50;99.90;;;;;;5010212;28;20891;-74
2022/03/04 11:25:12;;;;;;;69.23;33.13;;;10.60;99.90;;;;;;5008340;28;20829;-75
2022/03/04 11:27:43;;;;;;;65.70;32.03;;;10.80;99.90;;;;;;5012188;28;20486;-75
2022/03/04 11:30:32;;;;;;;62.80;30.70;;;11.00;99.90;;;;;;5011386;28;20538;-74
2022/03/04 11:33:08;;;;;;;70.07;31.57;;;11.50;99.90;;;;;;5010791;28;20485;-76
2022/03/04 11:36:07;;;;;;;59.67;28.90;;;11.80;99.90;;;;;;5012099;28;20488;-72
2022/03/04 11:39:10;;;;;;;61.20;31.33;;;12.00;99.90;;;;;;5010331;28;20537;-71
2022/03/04 11:42:12;;;;;;;57.93;30.17;;;11.70;99.90;;;;;;5012217;28;20474;-71
2022/03/04 11:44:59;;;;;;;57.17;28.37;;;11.40;99.90;;;;;;5010403;28;20472;-72
2022/03/04 11:47:30;;;;;;;61.87;30.40;;;11.50;99.90;;;;;;5010324;28;20490;-71
2022/03/04 11:49:57;;;;;;;61.57;30.40;;;11.50;99.90;;;;;;5010855;28;20499;-73
2022/03/04 11:52:27;;;;;;;64.60;30.27;;;11.60;99.90;;;;;;5010826;28;20462;-71
2022/03/04 11:55:16;;;;;;;55.73;29.93;;;11.60;99.90;;;;;;5009536;28;20458;-72
2022/03/04 11:57:44;;;;;;;63.63;30.77;;;11.10;99.90;;;;;;5009866;28;20480;-71
2022/03/04 12:00:39;;;;;;;62.00;31.90;;;11.10;99.90;;;;;;5011854;28;20541;-71
2022/03/04 12:03:21;;;;;;;59.40;31.73;;;11.00;99.90;;;;;;5007177;28;20447;-72
2022/03/04 12:06:03;;;;;;;59.60;30.27;;;11.10;99.90;;;;;;5009480;28;20497;-71
2022/03/04 12:08:41;;;;;;;55.90;29.23;;;10.90;99.90;;;;;;5011185;28;20489;-72
2022/03/04 12:11:08;;;;;;;62.13;30.43;;;11.20;99.90;;;;;;5006679;28;20450;-72
2022/03/04 12:13:42;;;;;;;59.93;29.40;;;11.40;99.90;;;;;;5011630;28;20451;-72
2022/03/04 12:16:11;;;;;;;55.55;28.95;;;11.40;99.90;;;;;;5011108;28;20530;-74
2022/03/04 12:18:40;;;;;;;58.73;30.03;;;11.80;99.90;;;;;;5011355;28;20191;-74
2022/03/04 12:21:13;;;;;;;57.90;30.33;;;11.70;99.90;;;;;;5011576;28;20463;-73
2022/03/04 12:23:51;;;;;;;61.40;30.70;;;12.00;99.90;;;;;;5010098;28;20465;-74
2022/03/04 12:26:24;;;;;;;57.77;29.03;;;12.40;99.90;;;;;;5011473;28;20474;-76
2022/03/04 12:28:52;;;;;;;57.13;30.00;;;12.80;99.90;;;;;;5010540;28;20617;-76
2022/03/04 12:31:25;;;;;;;55.57;29.00;;;13.20;99.90;;;;;;5010730;28;20826;-76
2022/03/04 12:33:57;;;;;;;54.70;29.20;;;13.30;99.90;;;;;;5010913;28;20454;-75
2022/03/04 12:36:27;;;;;;;59.57;30.10;;;12.90;99.90;;;;;;5010441;28;20916;-75